createdAt,value
2022-10-03T00:00:30.484Z,2.90
2022-10-03T00:03:29.793Z,2.70
2022-10-03T00:06:08.675Z,3.10
2022-10-03T00:09:06.474Z,2.80
2022-10-03T00:11:47.129Z,2.60
2022-10-03T00:14:23.320Z,2.50
2022-10-03T00:16:59.736Z,2.80
2022-10-03T00:19:39.889Z,3.50
2022-10-03T00:22:24.156Z,3.00
2022-10-03T00:25:06.096Z,3.00
2022-10-03T00:27:41.771Z,2.40
2022-10-03T00:30:17.619Z,2.20
2022-10-03T00:33:03.898Z,2.60
2022-10-03T00:35:59.746Z,2.60
2022-10-03T00:38:53.058Z,2.40
2022-10-03T00:41:34.776Z,3.30
2022-10-03T00:44:37.522Z,2.30
2022-10-03T00:47:25.905Z,2.70
2022-10-03T00:50:06.415Z,2.30
2022-10-03T00:52:55.643Z,2.30
2022-10-03T00:55:35.581Z,2.20
2022-10-03T00:58:26.862Z,2.30
2022-10-03T01:01:05.274Z,2.20
2022-10-03T01:03:45.362Z,2.40
2022-10-03T01:06:27.485Z,2.10
2022-10-03T01:11:50.463Z,2.50
2022-10-03T01:14:30.614Z,2.30
2022-10-03T01:17:10.826Z,2.10
2022-10-03T01:19:56.821Z,2.30
2022-10-03T01:22:46.372Z,3.10
2022-10-03T01:25:20.010Z,2.80
2022-10-03T01:28:18.944Z,2.40
2022-10-03T01:30:52.957Z,2.30
2022-10-03T01:33:29.896Z,2.40
2022-10-03T01:36:10.256Z,2.10
2022-10-03T01:38:47.045Z,2.20
2022-10-03T01:41:21.924Z,2.30
2022-10-03T01:43:55.274Z,2.40
2022-10-03T01:46:32.601Z,1.90
2022-10-03T01:49:07.084Z,2.40
2022-10-03T01:51:47.537Z,2.20
2022-10-03T01:54:23.332Z,2.80
2022-10-03T01:56:59.217Z,1.60
2022-10-03T01:59:40.946Z,2.20
2022-10-03T02:02:16.863Z,2.20
2022-10-03T02:04:57.624Z,1.70
2022-10-03T02:07:35.378Z,2.20
2022-10-03T02:10:13.033Z,3.40
2022-10-03T02:12:51.805Z,2.10
2022-10-03T02:15:27.781Z,3.00
2022-10-03T02:18:02.062Z,1.90
2022-10-03T02:20:40.350Z,1.70
2022-10-03T02:23:24.743Z,2.00
2022-10-03T02:26:05.738Z,2.40
2022-10-03T02:28:57.604Z,2.60
2022-10-03T02:32:06.826Z,2.50
2022-10-03T02:35:15.394Z,2.00
2022-10-03T02:38:14.160Z,2.50
2022-10-03T02:41:13.123Z,2.60
2022-10-03T02:44:14.139Z,2.40
2022-10-03T02:47:17.959Z,2.50
2022-10-03T02:50:05.128Z,2.70
2022-10-03T02:52:56.075Z,2.60
2022-10-03T02:55:46.709Z,2.70
2022-10-03T02:58:34.908Z,3.10
2022-10-03T03:01:39.034Z,3.10
2022-10-03T03:04:30.258Z,3.00
2022-10-03T03:07:17.649Z,3.50
2022-10-03T03:10:07.249Z,2.70
2022-10-03T03:13:15.723Z,2.40
2022-10-03T03:16:28.548Z,2.70
2022-10-03T03:19:11.907Z,3.50
2022-10-03T03:21:49.706Z,3.10
2022-10-03T03:24:32.339Z,2.90
2022-10-03T03:27:22.654Z,3.10
2022-10-03T03:30:02.630Z,2.50
2022-10-03T03:32:45.349Z,3.30
2022-10-03T03:35:22.534Z,3.40
2022-10-03T03:38:03.943Z,3.00
2022-10-03T03:40:44.979Z,3.30
2022-10-03T03:43:34.350Z,3.30
2022-10-03T03:46:22.230Z,3.20
2022-10-03T03:49:08.864Z,3.50
2022-10-03T03:51:50.037Z,4.10
2022-10-03T03:54:38.244Z,2.60
2022-10-03T03:57:21.286Z,2.50
2022-10-03T04:00:05.748Z,2.40
2022-10-03T04:03:02.607Z,3.50
2022-10-03T04:05:54.020Z,2.30
2022-10-03T04:08:38.112Z,4.20
2022-10-03T04:11:23.448Z,2.70
2022-10-03T04:14:27.811Z,2.40
2022-10-03T04:17:43.583Z,2.50
2022-10-03T04:20:25.574Z,2.80
2022-10-03T04:23:05.998Z,2.60
2022-10-03T04:25:56.690Z,2.60
2022-10-03T04:28:53.158Z,2.60
2022-10-03T04:31:40.583Z,2.80
2022-10-03T04:34:24.800Z,2.60
2022-10-03T04:37:09.015Z,2.40
2022-10-03T04:39:50.357Z,2.80
2022-10-03T04:42:40.194Z,4.50
2022-10-03T04:45:28.123Z,3.00
2022-10-03T04:48:06.982Z,2.90
2022-10-03T04:50:41.736Z,2.80
2022-10-03T04:53:25.916Z,3.10
2022-10-03T04:56:05.968Z,2.60
2022-10-03T04:58:40.515Z,3.60
2022-10-03T05:01:17.720Z,2.50
2022-10-03T05:04:01.728Z,3.30
2022-10-03T05:06:47.381Z,3.20
2022-10-03T05:09:31.970Z,2.70
2022-10-03T05:12:10.084Z,3.50
2022-10-03T05:14:57.077Z,3.60
2022-10-03T05:17:34.185Z,3.70
2022-10-03T05:20:19.712Z,2.90
2022-10-03T05:22:59.782Z,3.10
2022-10-03T05:25:38.869Z,3.10
2022-10-03T05:28:21.541Z,3.00
2022-10-03T05:30:58.044Z,2.80
2022-10-03T05:33:38.887Z,3.00
2022-10-03T05:36:19.178Z,3.10
2022-10-03T05:39:17.717Z,3.20
2022-10-03T05:42:17.943Z,3.30
2022-10-03T05:44:46.016Z,3.20
2022-10-03T05:50:27.744Z,2.80
2022-10-03T05:53:10.934Z,2.70
2022-10-03T05:56:01.415Z,3.90
2022-10-03T05:58:47.572Z,4.00
2022-10-03T06:01:47.305Z,2.80
2022-10-03T06:04:55.402Z,2.90
2022-10-03T06:07:29.289Z,2.90
2022-10-03T06:10:39.628Z,3.10
2022-10-03T06:13:17.728Z,3.30
2022-10-03T06:16:00.128Z,2.90
2022-10-03T06:19:02.633Z,3.10
2022-10-03T06:21:53.037Z,3.40
2022-10-03T06:24:48.755Z,2.80
2022-10-03T06:27:53.241Z,2.90
2022-10-03T06:30:31.803Z,3.30
2022-10-03T06:33:38.799Z,3.00
2022-10-03T06:36:35.394Z,2.90
2022-10-03T06:39:45.692Z,2.70
2022-10-03T06:42:43.569Z,3.40
2022-10-03T06:46:00.206Z,2.90
2022-10-03T06:48:50.397Z,3.30
2022-10-03T06:51:42.130Z,3.00
2022-10-03T06:54:44.343Z,2.50
2022-10-03T06:57:34.860Z,3.50
2022-10-03T07:00:14.692Z,3.30
2022-10-03T07:03:10.871Z,3.30
2022-10-03T07:06:14.493Z,3.30
2022-10-03T07:09:06.742Z,3.20
2022-10-03T07:12:14.188Z,3.20
2022-10-03T07:15:08.172Z,3.60
2022-10-03T07:17:51.960Z,3.50
2022-10-03T07:21:03.468Z,2.90
2022-10-03T07:24:06.161Z,2.10
2022-10-03T07:27:04.410Z,2.40
2022-10-03T07:30:03.963Z,2.00
2022-10-03T07:32:57.846Z,1.90
2022-10-03T07:36:01.753Z,2.10
2022-10-03T07:38:58.904Z,2.30
2022-10-03T07:41:54.919Z,2.60
2022-10-03T07:44:57.872Z,2.80
2022-10-03T07:47:57.038Z,2.50
2022-10-03T07:50:49.812Z,3.10
2022-10-03T07:54:00.414Z,3.60
2022-10-03T07:56:48.496Z,1.70
2022-10-03T08:00:00.689Z,1.70
2022-10-03T08:02:44.427Z,1.90
2022-10-03T08:05:27.761Z,2.00
2022-10-03T08:08:21.711Z,2.60
2022-10-03T08:11:21.191Z,3.20
2022-10-03T08:14:06.320Z,2.20
2022-10-03T08:16:59.703Z,2.40
2022-10-03T08:19:50.523Z,2.00
2022-10-03T08:22:36.907Z,1.90
2022-10-03T08:25:24.464Z,1.90
2022-10-03T08:28:13.117Z,2.00
2022-10-03T08:31:00.469Z,2.80
2022-10-03T08:33:54.902Z,1.60
2022-10-03T08:36:52.096Z,2.20
2022-10-03T08:39:41.522Z,1.40
2022-10-03T08:42:30.715Z,1.30
2022-10-03T08:45:41.780Z,1.50
2022-10-03T08:48:37.073Z,1.30
2022-10-03T08:51:49.485Z,1.90
2022-10-03T08:54:44.350Z,1.60
2022-10-03T08:57:25.940Z,1.40
2022-10-03T09:03:31.842Z,1.80
2022-10-03T09:06:27.516Z,1.30
2022-10-03T09:09:11.959Z,1.20
2022-10-03T09:12:05.500Z,1.30
2022-10-03T09:14:47.559Z,1.50
2022-10-03T09:20:50.996Z,1.50
2022-10-03T09:23:49.847Z,1.00
2022-10-03T09:27:04.236Z,1.30
2022-10-03T09:29:53.497Z,2.40
2022-10-03T09:33:07.942Z,1.40
2022-10-03T09:35:56.154Z,2.00
2022-10-03T09:39:03.122Z,1.40
2022-10-03T09:42:16.170Z,1.70
2022-10-03T09:45:17.059Z,1.00
2022-10-03T09:48:09.572Z,1.10
2022-10-03T09:51:15.580Z,1.20
2022-10-03T09:54:23.055Z,1.40
2022-10-03T09:57:29.393Z,1.20
2022-10-03T10:00:16.659Z,0.90
2022-10-03T10:03:26.943Z,1.10
2022-10-03T10:06:38.537Z,1.20
2022-10-03T10:09:38.634Z,1.20
2022-10-03T10:12:39.719Z,1.30
2022-10-03T10:15:25.996Z,1.10
2022-10-03T10:18:29.672Z,1.80
2022-10-03T10:21:33.113Z,1.20
2022-10-03T10:24:25.083Z,1.60
2022-10-03T10:27:20.229Z,1.80
2022-10-03T10:30:09.207Z,1.40
2022-10-03T10:33:12.123Z,1.40
2022-10-03T10:36:15.816Z,1.40
2022-10-03T10:39:16.286Z,1.40
2022-10-03T10:42:16.342Z,1.40
2022-10-03T10:45:16.792Z,1.30
2022-10-03T10:48:25.646Z,1.20
2022-10-03T10:51:29.204Z,1.10
2022-10-03T10:54:38.510Z,1.90
2022-10-03T10:57:21.911Z,1.60
2022-10-03T11:00:21.938Z,2.20
2022-10-03T11:03:25.281Z,1.60
2022-10-03T11:06:46.416Z,1.40
2022-10-03T11:09:41.717Z,1.70
2022-10-03T11:12:46.177Z,1.90
2022-10-03T11:16:04.248Z,1.70
2022-10-03T11:19:17.229Z,1.40
2022-10-03T11:22:17.557Z,1.40
2022-10-03T11:25:22.235Z,1.30
2022-10-03T11:28:23.045Z,1.30
2022-10-03T11:31:37.474Z,1.00
2022-10-03T11:34:36.461Z,1.20
2022-10-03T11:37:18.273Z,1.30
2022-10-03T11:39:54.024Z,1.10
2022-10-03T11:42:32.815Z,1.30
2022-10-03T11:45:04.911Z,1.20
2022-10-03T11:50:38.604Z,1.20
2022-10-03T11:53:19.155Z,1.30
2022-10-03T11:55:58.074Z,1.50
2022-10-03T11:58:38.009Z,1.20
2022-10-03T12:01:23.800Z,0.90
2022-10-03T12:03:59.542Z,1.40
2022-10-03T12:07:04.329Z,1.50
2022-10-03T12:09:45.114Z,1.20
2022-10-03T12:12:27.518Z,1.30
2022-10-03T12:15:03.494Z,1.10
2022-10-03T12:17:35.288Z,1.40
2022-10-03T12:20:17.457Z,1.30
2022-10-03T12:25:25.731Z,1.10
2022-10-03T12:28:06.780Z,1.50
2022-10-03T12:30:47.012Z,1.40
2022-10-03T12:33:32.458Z,1.20
2022-10-03T12:36:09.333Z,1.20
2022-10-03T12:38:58.087Z,1.10
2022-10-03T12:41:45.097Z,1.30
2022-10-03T12:44:29.181Z,1.40
2022-10-03T12:47:13.883Z,1.30
2022-10-03T12:49:55.609Z,1.20
2022-10-03T12:52:31.038Z,1.30
2022-10-03T12:55:15.130Z,1.20
2022-10-03T12:58:17.403Z,1.40
2022-10-03T13:00:57.288Z,2.20
2022-10-03T13:03:44.837Z,1.50
2022-10-03T13:07:05.803Z,1.30
2022-10-03T13:09:58.510Z,1.00
2022-10-03T13:12:38.671Z,1.00
2022-10-03T13:15:43.614Z,1.10
2022-10-03T13:18:23.939Z,1.00
2022-10-03T13:21:00.315Z,1.00
2022-10-03T13:23:41.876Z,1.00
2022-10-03T13:26:18.454Z,0.90
2022-10-03T13:29:12.598Z,0.70
2022-10-03T13:31:55.440Z,0.70
2022-10-03T13:34:32.596Z,1.40
2022-10-03T13:37:14.137Z,0.80
2022-10-03T13:39:48.069Z,0.90
2022-10-03T13:42:28.010Z,0.90
2022-10-03T13:45:14.119Z,0.60
2022-10-03T13:47:51.393Z,1.90
2022-10-03T13:50:30.449Z,1.20
2022-10-03T13:53:13.072Z,1.00
2022-10-03T13:55:47.934Z,0.90
2022-10-03T13:58:31.961Z,0.90
2022-10-03T14:01:34.724Z,1.00
2022-10-03T14:04:34.166Z,1.10
2022-10-03T14:07:17.622Z,1.00
2022-10-03T14:10:13.514Z,2.10
2022-10-03T14:13:16.793Z,1.20
2022-10-03T14:15:52.482Z,1.50
2022-10-03T14:18:37.308Z,1.80
2022-10-03T14:21:38.999Z,1.60
2022-10-03T14:24:25.781Z,1.50
2022-10-03T14:27:20.815Z,1.60
2022-10-03T14:30:08.753Z,2.50
2022-10-03T14:33:01.583Z,2.20
2022-10-03T14:36:12.119Z,1.60
2022-10-03T14:39:10.841Z,1.60
2022-10-03T14:42:27.548Z,1.50
2022-10-03T14:45:07.304Z,2.30
2022-10-03T14:47:47.060Z,2.10
2022-10-03T14:50:29.300Z,2.70
2022-10-03T14:53:22.080Z,1.90
2022-10-03T14:56:03.125Z,1.60
2022-10-03T14:58:38.028Z,2.30
2022-10-03T15:01:15.297Z,2.10
2022-10-03T15:03:55.865Z,2.00
2022-10-03T15:06:56.721Z,2.00
2022-10-03T15:09:46.674Z,2.30
2022-10-03T15:12:23.566Z,1.80
2022-10-03T15:15:00.663Z,2.00
2022-10-03T15:17:43.348Z,2.20
2022-10-03T15:20:18.208Z,1.80
2022-10-03T15:22:52.254Z,2.00
2022-10-03T15:25:26.104Z,1.90
2022-10-03T15:27:57.800Z,1.90
2022-10-03T15:33:24.611Z,2.10
2022-10-03T15:35:58.658Z,2.00
2022-10-03T15:38:38.015Z,2.00
2022-10-03T15:41:11.641Z,2.50
2022-10-03T15:43:56.541Z,2.20
2022-10-03T15:46:34.263Z,2.20
2022-10-03T15:49:15.913Z,2.60
2022-10-03T15:51:48.613Z,2.30
2022-10-03T15:54:29.606Z,2.90
2022-10-03T15:57:00.990Z,2.60
2022-10-03T15:59:34.830Z,2.00
2022-10-03T16:02:08.814Z,2.30
2022-10-03T16:04:37.702Z,2.70
2022-10-03T16:07:21.811Z,2.00
2022-10-03T16:09:55.673Z,2.20
2022-10-03T16:12:47.549Z,1.50
2022-10-03T16:15:21.959Z,2.50
2022-10-03T16:18:01.772Z,2.20
2022-10-03T16:20:41.506Z,2.20
2022-10-03T16:23:18.733Z,2.70
2022-10-03T16:25:54.727Z,2.20
2022-10-03T16:28:34.132Z,2.20
2022-10-03T16:31:18.395Z,1.90
2022-10-03T16:33:58.077Z,2.80
2022-10-03T16:36:28.739Z,2.30
2022-10-03T16:39:00.377Z,2.60
2022-10-03T16:41:32.306Z,2.30
2022-10-03T16:44:03.378Z,2.10
2022-10-03T16:46:35.374Z,3.00
2022-10-03T16:52:01.853Z,2.60
2022-10-03T16:54:31.081Z,3.20
2022-10-03T16:57:03.092Z,3.20
2022-10-03T16:59:33.868Z,3.50
2022-10-03T17:02:06.247Z,2.80
2022-10-03T17:04:39.797Z,2.90
2022-10-03T17:07:17.638Z,2.50
2022-10-03T17:09:49.092Z,3.40
2022-10-03T17:12:23.369Z,4.10
2022-10-03T17:14:55.488Z,3.20
2022-10-03T17:17:32.200Z,2.00
2022-10-03T17:20:06.379Z,2.60
2022-10-03T17:22:40.702Z,2.80
2022-10-03T17:25:34.151Z,3.10
2022-10-03T17:28:06.127Z,4.00
2022-10-03T17:30:43.737Z,2.40
2022-10-03T17:33:19.136Z,2.50
2022-10-03T17:35:54.959Z,2.30
2022-10-03T17:38:48.949Z,3.20
2022-10-03T17:41:23.750Z,3.50
2022-10-03T17:44:04.177Z,2.60
2022-10-03T17:46:42.895Z,2.70
2022-10-03T17:49:24.933Z,3.20
2022-10-03T17:54:29.385Z,2.60
2022-10-03T17:57:05.272Z,3.50
2022-10-03T17:59:43.656Z,2.40
2022-10-03T18:02:20.244Z,2.70
2022-10-03T18:04:56.788Z,2.80
2022-10-03T18:07:28.230Z,2.60
2022-10-03T18:09:57.478Z,2.70
2022-10-03T18:12:34.606Z,2.80
2022-10-03T18:15:34.943Z,4.30
2022-10-03T18:18:23.378Z,4.40
2022-10-03T18:21:00.915Z,4.30
2022-10-03T18:23:54.782Z,3.90
2022-10-03T18:26:34.473Z,3.60
2022-10-03T18:29:27.347Z,3.40
2022-10-03T18:32:20.002Z,3.90
2022-10-03T18:35:09.610Z,3.90
2022-10-03T18:38:19.834Z,4.50
2022-10-03T18:41:04.794Z,3.40
2022-10-03T18:43:44.526Z,3.60
2022-10-03T18:46:26.721Z,2.90
2022-10-03T18:49:31.941Z,3.20
2022-10-03T18:52:14.174Z,3.40
2022-10-03T18:54:56.373Z,3.50
2022-10-03T19:00:04.873Z,3.80
2022-10-03T19:02:43.124Z,4.20
2022-10-03T19:05:24.758Z,4.70
2022-10-03T19:08:02.179Z,5.00
2022-10-03T19:10:38.987Z,3.80
2022-10-03T19:13:20.280Z,3.80
2022-10-03T19:16:17.375Z,4.30
2022-10-03T19:19:01.545Z,3.70
2022-10-03T19:21:36.082Z,3.90
2022-10-03T19:24:15.885Z,3.00
2022-10-03T19:26:49.533Z,3.90
2022-10-03T19:29:21.922Z,3.00
2022-10-03T19:32:06.931Z,3.20
2022-10-03T19:34:43.504Z,2.40
2022-10-03T19:37:33.347Z,3.00
2022-10-03T19:40:02.660Z,3.40
2022-10-03T19:42:45.992Z,2.90
2022-10-03T19:45:19.323Z,2.60
2022-10-03T19:47:58.238Z,3.00
2022-10-03T19:50:36.896Z,3.10
2022-10-03T19:53:15.697Z,3.10
2022-10-03T19:55:46.059Z,2.60
2022-10-03T19:58:24.514Z,2.90
2022-10-03T20:01:02.489Z,2.50
2022-10-03T20:03:37.711Z,2.50
2022-10-03T20:06:17.616Z,3.00
2022-10-03T20:08:52.690Z,3.20
2022-10-03T20:11:36.858Z,3.30
2022-10-03T20:14:06.811Z,3.60
2022-10-03T20:16:43.719Z,3.30
2022-10-03T20:19:14.642Z,3.80
2022-10-03T20:21:50.572Z,3.60
2022-10-03T20:24:28.303Z,3.60
2022-10-03T20:27:08.416Z,2.80
2022-10-03T20:29:42.352Z,3.40
2022-10-03T20:32:16.275Z,2.70
2022-10-03T20:34:52.339Z,3.10
2022-10-03T20:37:38.084Z,3.30
2022-10-03T20:40:25.309Z,3.10
2022-10-03T20:43:06.733Z,3.40
2022-10-03T20:45:37.041Z,3.00
2022-10-03T20:48:09.214Z,3.00
2022-10-03T20:50:43.047Z,2.60
2022-10-03T20:53:17.949Z,2.60
2022-10-03T20:55:49.450Z,2.90
2022-10-03T20:58:26.504Z,4.00
2022-10-03T21:01:00.644Z,3.00
2022-10-03T21:03:37.537Z,2.50
2022-10-03T21:06:17.431Z,2.70
2022-10-03T21:08:47.378Z,2.80
2022-10-03T21:11:22.217Z,2.40
2022-10-03T21:13:56.387Z,2.90
2022-10-03T21:16:29.039Z,2.80
2022-10-03T21:19:01.360Z,2.30
2022-10-03T21:21:38.438Z,2.50
2022-10-03T21:24:16.965Z,2.50
2022-10-03T21:26:48.502Z,3.00
2022-10-03T21:29:26.284Z,2.70
2022-10-03T21:32:06.933Z,2.70
2022-10-03T21:34:43.775Z,2.90
2022-10-03T21:37:19.546Z,2.40
2022-10-03T21:40:00.664Z,2.40
2022-10-03T21:42:35.322Z,3.20
2022-10-03T21:45:20.072Z,1.90
2022-10-03T21:47:51.026Z,2.30
2022-10-03T21:50:24.354Z,2.30
2022-10-03T21:53:05.262Z,2.10
2022-10-03T21:55:56.134Z,1.80
2022-10-03T21:58:57.536Z,2.40
2022-10-03T22:01:31.558Z,2.20
2022-10-03T22:04:05.725Z,2.10
2022-10-03T22:06:38.612Z,2.10
2022-10-03T22:09:13.991Z,2.00
2022-10-03T22:11:49.318Z,2.00
2022-10-03T22:14:29.882Z,2.40
2022-10-03T22:17:06.384Z,1.90
2022-10-03T22:19:39.576Z,1.60
2022-10-03T22:22:24.821Z,2.20
2022-10-03T22:25:05.637Z,2.00
2022-10-03T22:27:42.804Z,1.90
2022-10-03T22:30:14.586Z,1.70
2022-10-03T22:32:52.369Z,2.90
2022-10-03T22:35:46.762Z,1.90
2022-10-03T22:38:16.421Z,2.30
2022-10-03T22:40:47.287Z,2.40
2022-10-03T22:43:16.705Z,3.00
2022-10-03T22:45:48.918Z,2.80
2022-10-03T22:48:23.159Z,1.90
2022-10-03T22:50:52.897Z,1.70
2022-10-03T22:53:26.526Z,2.10
2022-10-03T22:55:58.199Z,1.70
2022-10-03T22:58:29.803Z,1.80
2022-10-03T23:01:00.828Z,1.80
2022-10-03T23:03:33.866Z,1.90
2022-10-03T23:06:23.989Z,2.00
2022-10-03T23:09:03.338Z,1.50
2022-10-03T23:11:34.090Z,1.50
2022-10-03T23:14:13.057Z,1.70
2022-10-03T23:16:52.315Z,1.80
2022-10-03T23:19:35.391Z,1.80
2022-10-03T23:22:12.584Z,1.90
2022-10-03T23:24:47.055Z,2.00
2022-10-03T23:27:32.586Z,1.80
2022-10-03T23:30:46.424Z,1.90
2022-10-03T23:33:39.137Z,1.60
2022-10-03T23:36:14.176Z,2.20
2022-10-03T23:38:59.897Z,1.90
2022-10-03T23:42:00.127Z,1.80
2022-10-03T23:44:37.111Z,1.70
2022-10-03T23:47:09.844Z,2.40
2022-10-03T23:49:41.004Z,2.00
2022-10-03T23:52:15.554Z,1.80
2022-10-03T23:54:45.888Z,1.90
2022-10-03T23:57:16.471Z,1.90
2022-10-03T23:59:46.329Z,1.90
